sensor_id;sensor_type;location;lat;lon;timestamp;P1;durP1;ratioP1;P2;durP2;ratioP2
66919;SDS011;53831;52.090;17.026;2023-03-24T00:01:58;12.20;;;6.00;;
66919;SDS011;53831;52.090;17.026;2023-03-24T00:18:23;10.60;;;6.60;;
66919;SDS011;53831;52.090;17.026;2023-03-24T00:35:25;9.70;;;6.20;;
66919;SDS011;53831;52.090;17.026;2023-03-24T00:46:00;10.70;;;5.90;;
66919;SDS011;53831;52.090;17.026;2023-03-24T00:51:38;11.10;;;6.80;;
66919;SDS011;53831;52.090;17.026;2023-03-24T00:57:31;9.00;;;5.60;;
66919;SDS011;53831;52.090;17.026;2023-03-24T01:09:27;9.20;;;5.80;;
66919;SDS011;53831;52.090;17.026;2023-03-24T01:15:20;10.50;;;5.40;;
66919;SDS011;53831;52.090;17.026;2023-03-24T01:21:02;9.40;;;5.30;;
66919;SDS011;53831;52.090;17.026;2023-03-24T01:26:12;10.60;;;5.30;;
66919;SDS011;53831;52.090;17.026;2023-03-24T01:31:16;10.40;;;5.40;;
66919;SDS011;53831;52.090;17.026;2023-03-24T01:43:14;10.10;;;5.80;;
66919;SDS011;53831;52.090;17.026;2023-03-24T01:54:57;10.00;;;5.90;;
66919;SDS011;53831;52.090;17.026;2023-03-24T02:00:32;13.20;;;6.20;;
66919;SDS011;53831;52.090;17.026;2023-03-24T02:12:13;8.60;;;5.40;;
66919;SDS011;53831;52.090;17.026;2023-03-24T02:22:56;10.70;;;5.20;;
66919;SDS011;53831;52.090;17.026;2023-03-24T02:58:53;10.50;;;6.20;;
66919;SDS011;53831;52.090;17.026;2023-03-24T03:15:00;12.70;;;6.30;;
66919;SDS011;53831;52.090;17.026;2023-03-24T03:26:24;11.70;;;6.60;;
66919;SDS011;53831;52.090;17.026;2023-03-24T03:31:57;11.10;;;6.20;;
66919;SDS011;53831;52.090;17.026;2023-03-24T03:48:11;10.40;;;6.80;;
66919;SDS011;53831;52.090;17.026;2023-03-24T03:53:14;9.80;;;6.10;;
66919;SDS011;53831;52.090;17.026;2023-03-24T03:58:16;13.10;;;6.60;;
66919;SDS011;53831;52.090;17.026;2023-03-24T04:03:40;14.80;;;7.20;;
66919;SDS011;53831;52.090;17.026;2023-03-24T04:09:02;14.70;;;7.70;;
66919;SDS011;53831;52.090;17.026;2023-03-24T04:30:30;15.00;;;7.40;;
66919;SDS011;53831;52.090;17.026;2023-03-24T04:35:36;12.80;;;8.00;;
66919;SDS011;53831;52.090;17.026;2023-03-24T04:40:54;17.80;;;10.80;;
66919;SDS011;53831;52.090;17.026;2023-03-24T04:45:56;18.80;;;10.40;;
66919;SDS011;53831;52.090;17.026;2023-03-24T04:51:17;19.10;;;9.80;;
66919;SDS011;53831;52.090;17.026;2023-03-24T04:56:41;12.50;;;7.60;;
66919;SDS011;53831;52.090;17.026;2023-03-24T05:01:57;11.40;;;7.20;;
66919;SDS011;53831;52.090;17.026;2023-03-24T05:07:03;12.30;;;7.10;;
66919;SDS011;53831;52.090;17.026;2023-03-24T05:12:04;11.60;;;7.60;;
66919;SDS011;53831;52.090;17.026;2023-03-24T05:17:14;11.50;;;6.80;;
66919;SDS011;53831;52.090;17.026;2023-03-24T05:22:15;11.80;;;7.00;;
66919;SDS011;53831;52.090;17.026;2023-03-24T05:27:16;19.40;;;10.50;;
66919;SDS011;53831;52.090;17.026;2023-03-24T05:32:17;17.40;;;9.20;;
66919;SDS011;53831;52.090;17.026;2023-03-24T05:37:17;13.70;;;7.50;;
66919;SDS011;53831;52.090;17.026;2023-03-24T05:42:22;18.30;;;8.90;;
66919;SDS011;53831;52.090;17.026;2023-03-24T05:47:23;23.60;;;9.60;;
66919;SDS011;53831;52.090;17.026;2023-03-24T05:52:23;22.70;;;9.50;;
66919;SDS011;53831;52.090;17.026;2023-03-24T05:57:32;18.20;;;8.80;;
66919;SDS011;53831;52.090;17.026;2023-03-24T06:02:53;16.70;;;8.10;;
66919;SDS011;53831;52.090;17.026;2023-03-24T06:08:02;18.80;;;8.30;;
66919;SDS011;53831;52.090;17.026;2023-03-24T06:13:05;15.60;;;8.10;;
66919;SDS011;53831;52.090;17.026;2023-03-24T06:18:08;13.80;;;8.00;;
66919;SDS011;53831;52.090;17.026;2023-03-24T06:23:10;12.80;;;7.70;;
66919;SDS011;53831;52.090;17.026;2023-03-24T06:28:43;12.20;;;7.20;;
66919;SDS011;53831;52.090;17.026;2023-03-24T06:33:51;11.00;;;6.70;;
66919;SDS011;53831;52.090;17.026;2023-03-24T06:38:52;13.20;;;7.30;;
66919;SDS011;53831;52.090;17.026;2023-03-24T06:43:55;14.10;;;7.20;;
66919;SDS011;53831;52.090;17.026;2023-03-24T06:48:56;12.50;;;6.30;;
66919;SDS011;53831;52.090;17.026;2023-03-24T06:53:57;9.80;;;6.40;;
66919;SDS011;53831;52.090;17.026;2023-03-24T06:58:58;9.60;;;5.70;;
66919;SDS011;53831;52.090;17.026;2023-03-24T07:04:02;9.20;;;5.80;;
66919;SDS011;53831;52.090;17.026;2023-03-24T07:09:13;10.80;;;6.50;;
66919;SDS011;53831;52.090;17.026;2023-03-24T07:14:14;10.90;;;6.00;;
66919;SDS011;53831;52.090;17.026;2023-03-24T07:19:15;9.50;;;5.30;;
66919;SDS011;53831;52.090;17.026;2023-03-24T07:24:18;11.90;;;6.10;;
66919;SDS011;53831;52.090;17.026;2023-03-24T07:29:32;11.80;;;7.00;;
66919;SDS011;53831;52.090;17.026;2023-03-24T07:34:55;11.40;;;6.20;;
66919;SDS011;53831;52.090;17.026;2023-03-24T07:39:57;11.10;;;6.40;;
66919;SDS011;53831;52.090;17.026;2023-03-24T07:44:58;11.20;;;6.70;;
66919;SDS011;53831;52.090;17.026;2023-03-24T07:49:59;11.00;;;6.50;;
66919;SDS011;53831;52.090;17.026;2023-03-24T07:55:00;10.10;;;5.80;;
66919;SDS011;53831;52.090;17.026;2023-03-24T08:00:16;11.70;;;6.70;;
66919;SDS011;53831;52.090;17.026;2023-03-24T08:05:28;9.90;;;6.90;;
66919;SDS011;53831;52.090;17.026;2023-03-24T08:10:44;10.50;;;6.70;;
66919;SDS011;53831;52.090;17.026;2023-03-24T08:15:45;10.70;;;6.20;;
66919;SDS011;53831;52.090;17.026;2023-03-24T08:20:48;10.30;;;5.90;;
66919;SDS011;53831;52.090;17.026;2023-03-24T08:25:49;12.90;;;7.10;;
66919;SDS011;53831;52.090;17.026;2023-03-24T08:30:50;11.10;;;6.50;;
66919;SDS011;53831;52.090;17.026;2023-03-24T08:35:50;10.00;;;6.40;;
66919;SDS011;53831;52.090;17.026;2023-03-24T08:40:59;10.00;;;6.40;;
66919;SDS011;53831;52.090;17.026;2023-03-24T08:46:16;12.00;;;6.20;;
66919;SDS011;53831;52.090;17.026;2023-03-24T08:51:16;10.10;;;6.00;;
66919;SDS011;53831;52.090;17.026;2023-03-24T08:56:18;10.40;;;5.70;;
66919;SDS011;53831;52.090;17.026;2023-03-24T09:01:20;8.60;;;5.60;;
66919;SDS011;53831;52.090;17.026;2023-03-24T09:06:22;9.50;;;5.80;;
66919;SDS011;53831;52.090;17.026;2023-03-24T09:11:23;11.80;;;6.70;;
66919;SDS011;53831;52.090;17.026;2023-03-24T09:16:24;10.80;;;5.90;;
66919;SDS011;53831;52.090;17.026;2023-03-24T09:21:24;9.20;;;5.80;;
66919;SDS011;53831;52.090;17.026;2023-03-24T09:26:25;8.00;;;5.50;;
66919;SDS011;53831;52.090;17.026;2023-03-24T09:31:26;8.10;;;4.90;;
66919;SDS011;53831;52.090;17.026;2023-03-24T09:36:26;9.60;;;5.40;;
66919;SDS011;53831;52.090;17.026;2023-03-24T09:41:29;7.40;;;4.60;;
66919;SDS011;53831;52.090;17.026;2023-03-24T09:46:43;8.60;;;5.10;;
66919;SDS011;53831;52.090;17.026;2023-03-24T09:51:45;8.40;;;4.40;;
66919;SDS011;53831;52.090;17.026;2023-03-24T09:56:46;7.00;;;4.30;;
66919;SDS011;53831;52.090;17.026;2023-03-24T10:01:48;6.40;;;4.10;;
66919;SDS011;53831;52.090;17.026;2023-03-24T10:06:56;7.40;;;4.10;;
66919;SDS011;53831;52.090;17.026;2023-03-24T10:27:58;6.30;;;3.80;;
66919;SDS011;53831;52.090;17.026;2023-03-24T10:32:59;5.50;;;3.60;;
66919;SDS011;53831;52.090;17.026;2023-03-24T10:38:03;7.20;;;4.00;;
66919;SDS011;53831;52.090;17.026;2023-03-24T10:43:08;6.70;;;4.40;;
66919;SDS011;53831;52.090;17.026;2023-03-24T10:48:12;5.80;;;3.70;;
66919;SDS011;53831;52.090;17.026;2023-03-24T10:53:19;7.60;;;4.50;;
66919;SDS011;53831;52.090;17.026;2023-03-24T11:03:29;6.20;;;3.70;;
66919;SDS011;53831;52.090;17.026;2023-03-24T11:08:37;6.20;;;3.70;;
66919;SDS011;53831;52.090;17.026;2023-03-24T11:13:39;8.20;;;4.40;;
66919;SDS011;53831;52.090;17.026;2023-03-24T11:19:00;6.60;;;3.80;;
66919;SDS011;53831;52.090;17.026;2023-03-24T11:24:08;7.10;;;4.00;;
66919;SDS011;53831;52.090;17.026;2023-03-24T11:29:33;6.40;;;4.00;;
66919;SDS011;53831;52.090;17.026;2023-03-24T11:34:36;7.90;;;3.80;;
66919;SDS011;53831;52.090;17.026;2023-03-24T11:39:41;8.50;;;4.20;;
66919;SDS011;53831;52.090;17.026;2023-03-24T11:44:49;6.40;;;3.90;;
66919;SDS011;53831;52.090;17.026;2023-03-24T12:00:39;8.50;;;3.60;;
66919;SDS011;53831;52.090;17.026;2023-03-24T12:05:51;8.10;;;3.30;;
66919;SDS011;53831;52.090;17.026;2023-03-24T12:11:05;6.30;;;3.30;;
66919;SDS011;53831;52.090;17.026;2023-03-24T12:16:19;6.20;;;3.50;;
66919;SDS011;53831;52.090;17.026;2023-03-24T12:26:49;6.30;;;2.70;;
66919;SDS011;53831;52.090;17.026;2023-03-24T12:32:03;5.40;;;3.00;;
66919;SDS011;53831;52.090;17.026;2023-03-24T12:37:26;5.40;;;2.40;;
66919;SDS011;53831;52.090;17.026;2023-03-24T12:42:38;4.10;;;2.20;;
66919;SDS011;53831;52.090;17.026;2023-03-24T13:03:22;5.90;;;2.90;;
66919;SDS011;53831;52.090;17.026;2023-03-24T13:08:25;6.00;;;3.50;;
66919;SDS011;53831;52.090;17.026;2023-03-24T13:13:33;10.00;;;3.50;;
66919;SDS011;53831;52.090;17.026;2023-03-24T13:18:42;6.80;;;3.70;;
66919;SDS011;53831;52.090;17.026;2023-03-24T13:23:56;5.90;;;3.50;;
66919;SDS011;53831;52.090;17.026;2023-03-24T13:34:46;5.90;;;3.30;;
66919;SDS011;53831;52.090;17.026;2023-03-24T13:39:54;6.90;;;2.70;;
66919;SDS011;53831;52.090;17.026;2023-03-24T13:44:55;5.90;;;3.70;;
66919;SDS011;53831;52.090;17.026;2023-03-24T13:50:01;6.40;;;2.90;;
66919;SDS011;53831;52.090;17.026;2023-03-24T13:55:11;5.80;;;3.00;;
66919;SDS011;53831;52.090;17.026;2023-03-24T14:00:21;5.20;;;2.60;;
66919;SDS011;53831;52.090;17.026;2023-03-24T14:05:54;5.60;;;3.20;;
66919;SDS011;53831;52.090;17.026;2023-03-24T14:10:56;6.70;;;3.40;;
66919;SDS011;53831;52.090;17.026;2023-03-24T14:15:57;6.10;;;3.40;;
66919;SDS011;53831;52.090;17.026;2023-03-24T14:21:01;6.10;;;3.50;;
66919;SDS011;53831;52.090;17.026;2023-03-24T14:26:05;6.40;;;3.90;;
66919;SDS011;53831;52.090;17.026;2023-03-24T14:31:08;6.80;;;4.00;;
66919;SDS011;53831;52.090;17.026;2023-03-24T14:36:16;8.80;;;4.60;;
66919;SDS011;53831;52.090;17.026;2023-03-24T14:41:28;8.00;;;3.40;;
66919;SDS011;53831;52.090;17.026;2023-03-24T14:51:39;7.90;;;4.20;;
66919;SDS011;53831;52.090;17.026;2023-03-24T14:56:42;7.80;;;4.20;;
66919;SDS011;53831;52.090;17.026;2023-03-24T15:01:46;13.40;;;8.10;;
66919;SDS011;53831;52.090;17.026;2023-03-24T15:06:49;13.10;;;6.60;;
66919;SDS011;53831;52.090;17.026;2023-03-24T15:11:58;15.20;;;7.80;;
66919;SDS011;53831;52.090;17.026;2023-03-24T15:17:21;9.50;;;5.20;;
66919;SDS011;53831;52.090;17.026;2023-03-24T15:22:22;9.00;;;5.30;;
66919;SDS011;53831;52.090;17.026;2023-03-24T15:27:25;10.30;;;5.90;;
66919;SDS011;53831;52.090;17.026;2023-03-24T15:32:27;10.90;;;6.40;;
66919;SDS011;53831;52.090;17.026;2023-03-24T15:37:37;12.00;;;6.70;;
66919;SDS011;53831;52.090;17.026;2023-03-24T15:42:40;11.20;;;6.10;;
66919;SDS011;53831;52.090;17.026;2023-03-24T15:47:42;11.80;;;5.90;;
66919;SDS011;53831;52.090;17.026;2023-03-24T15:52:57;10.70;;;5.90;;
66919;SDS011;53831;52.090;17.026;2023-03-24T15:57:59;8.80;;;5.50;;
66919;SDS011;53831;52.090;17.026;2023-03-24T16:03:03;14.80;;;7.60;;
66919;SDS011;53831;52.090;17.026;2023-03-24T16:08:06;11.50;;;5.90;;
66919;SDS011;53831;52.090;17.026;2023-03-24T16:13:14;13.80;;;8.20;;
66919;SDS011;53831;52.090;17.026;2023-03-24T16:18:17;11.20;;;6.20;;
66919;SDS011;53831;52.090;17.026;2023-03-24T16:23:19;8.90;;;4.40;;
66919;SDS011;53831;52.090;17.026;2023-03-24T16:28:21;11.80;;;4.40;;
66919;SDS011;53831;52.090;17.026;2023-03-24T16:33:22;11.50;;;5.20;;
66919;SDS011;53831;52.090;17.026;2023-03-24T16:38:24;12.30;;;5.40;;
66919;SDS011;53831;52.090;17.026;2023-03-24T16:43:24;8.50;;;3.70;;
66919;SDS011;53831;52.090;17.026;2023-03-24T16:48:26;7.30;;;3.10;;
66919;SDS011;53831;52.090;17.026;2023-03-24T16:53:30;9.80;;;3.60;;
66919;SDS011;53831;52.090;17.026;2023-03-24T16:58:31;5.30;;;2.50;;
66919;SDS011;53831;52.090;17.026;2023-03-24T17:03:32;6.60;;;2.60;;
66919;SDS011;53831;52.090;17.026;2023-03-24T17:08:32;4.40;;;2.10;;
66919;SDS011;53831;52.090;17.026;2023-03-24T17:13:33;5.50;;;2.50;;
66919;SDS011;53831;52.090;17.026;2023-03-24T17:18:33;4.90;;;2.30;;
66919;SDS011;53831;52.090;17.026;2023-03-24T17:23:38;8.40;;;3.70;;
66919;SDS011;53831;52.090;17.026;2023-03-24T17:28:39;6.00;;;2.90;;
66919;SDS011;53831;52.090;17.026;2023-03-24T17:33:40;10.10;;;4.10;;
66919;SDS011;53831;52.090;17.026;2023-03-24T17:38:42;10.70;;;3.80;;
66919;SDS011;53831;52.090;17.026;2023-03-24T17:43:46;10.00;;;3.60;;
66919;SDS011;53831;52.090;17.026;2023-03-24T17:48:47;7.50;;;3.90;;
66919;SDS011;53831;52.090;17.026;2023-03-24T17:53:50;8.10;;;4.00;;
66919;SDS011;53831;52.090;17.026;2023-03-24T17:58:53;6.90;;;3.30;;
66919;SDS011;53831;52.090;17.026;2023-03-24T18:03:54;7.20;;;3.30;;
66919;SDS011;53831;52.090;17.026;2023-03-24T18:08:55;14.60;;;7.10;;
66919;SDS011;53831;52.090;17.026;2023-03-24T18:13:56;8.00;;;4.10;;
66919;SDS011;53831;52.090;17.026;2023-03-24T18:18:57;13.10;;;6.30;;
66919;SDS011;53831;52.090;17.026;2023-03-24T18:24:00;7.30;;;3.70;;
66919;SDS011;53831;52.090;17.026;2023-03-24T18:29:00;11.80;;;6.30;;
66919;SDS011;53831;52.090;17.026;2023-03-24T18:34:01;10.60;;;5.00;;
66919;SDS011;53831;52.090;17.026;2023-03-24T18:39:06;11.60;;;5.40;;
66919;SDS011;53831;52.090;17.026;2023-03-24T18:44:11;9.60;;;4.90;;
66919;SDS011;53831;52.090;17.026;2023-03-24T18:49:13;10.10;;;5.00;;
66919;SDS011;53831;52.090;17.026;2023-03-24T18:54:13;11.70;;;5.40;;
66919;SDS011;53831;52.090;17.026;2023-03-24T18:59:15;11.40;;;5.70;;
66919;SDS011;53831;52.090;17.026;2023-03-24T19:04:16;13.40;;;5.90;;
66919;SDS011;53831;52.090;17.026;2023-03-24T19:09:17;14.10;;;6.90;;
66919;SDS011;53831;52.090;17.026;2023-03-24T19:14:20;13.90;;;6.70;;
66919;SDS011;53831;52.090;17.026;2023-03-24T19:19:21;19.60;;;8.80;;
66919;SDS011;53831;52.090;17.026;2023-03-24T19:24:21;14.60;;;6.90;;
66919;SDS011;53831;52.090;17.026;2023-03-24T19:29:22;16.10;;;7.10;;
66919;SDS011;53831;52.090;17.026;2023-03-24T19:34:23;17.30;;;7.90;;
66919;SDS011;53831;52.090;17.026;2023-03-24T19:39:23;18.50;;;8.30;;
66919;SDS011;53831;52.090;17.026;2023-03-24T19:44:25;16.40;;;8.00;;
66919;SDS011;53831;52.090;17.026;2023-03-24T19:49:26;17.10;;;8.30;;
66919;SDS011;53831;52.090;17.026;2023-03-24T19:54:27;18.40;;;9.30;;
66919;SDS011;53831;52.090;17.026;2023-03-24T19:59:28;19.40;;;9.20;;
66919;SDS011;53831;52.090;17.026;2023-03-24T20:04:29;19.60;;;9.90;;
66919;SDS011;53831;52.090;17.026;2023-03-24T20:09:30;20.90;;;9.30;;
66919;SDS011;53831;52.090;17.026;2023-03-24T20:14:31;22.30;;;11.70;;
66919;SDS011;53831;52.090;17.026;2023-03-24T20:19:31;20.10;;;10.30;;
66919;SDS011;53831;52.090;17.026;2023-03-24T20:24:32;20.80;;;9.90;;
66919;SDS011;53831;52.090;17.026;2023-03-24T20:29:33;18.70;;;8.80;;
66919;SDS011;53831;52.090;17.026;2023-03-24T20:34:35;22.60;;;10.60;;
66919;SDS011;53831;52.090;17.026;2023-03-24T20:39:37;22.70;;;11.80;;
66919;SDS011;53831;52.090;17.026;2023-03-24T20:44:39;25.70;;;12.50;;
66919;SDS011;53831;52.090;17.026;2023-03-24T20:49:41;28.30;;;13.00;;
66919;SDS011;53831;52.090;17.026;2023-03-24T20:54:41;26.30;;;13.40;;
66919;SDS011;53831;52.090;17.026;2023-03-24T20:59:42;22.40;;;11.70;;
66919;SDS011;53831;52.090;17.026;2023-03-24T21:04:43;25.80;;;12.50;;
66919;SDS011;53831;52.090;17.026;2023-03-24T21:09:44;22.90;;;11.70;;
66919;SDS011;53831;52.090;17.026;2023-03-24T21:14:45;19.00;;;10.00;;
66919;SDS011;53831;52.090;17.026;2023-03-24T21:19:46;22.10;;;11.10;;
66919;SDS011;53831;52.090;17.026;2023-03-24T21:24:46;24.20;;;11.60;;
66919;SDS011;53831;52.090;17.026;2023-03-24T21:29:47;27.00;;;11.90;;
66919;SDS011;53831;52.090;17.026;2023-03-24T21:34:48;22.70;;;10.50;;
66919;SDS011;53831;52.090;17.026;2023-03-24T21:39:49;21.70;;;11.30;;
66919;SDS011;53831;52.090;17.026;2023-03-24T21:44:50;21.00;;;10.90;;
66919;SDS011;53831;52.090;17.026;2023-03-24T21:50:08;18.20;;;9.60;;
66919;SDS011;53831;52.090;17.026;2023-03-24T22:06:47;22.50;;;11.80;;
66919;SDS011;53831;52.090;17.026;2023-03-24T22:12:11;23.50;;;11.70;;
66919;SDS011;53831;52.090;17.026;2023-03-24T22:17:36;26.70;;;11.60;;
66919;SDS011;53831;52.090;17.026;2023-03-24T22:22:46;24.10;;;11.10;;
66919;SDS011;53831;52.090;17.026;2023-03-24T22:28:31;23.30;;;11.80;;
66919;SDS011;53831;52.090;17.026;2023-03-24T22:33:46;24.20;;;11.60;;
66919;SDS011;53831;52.090;17.026;2023-03-24T22:38:53;23.00;;;11.80;;
66919;SDS011;53831;52.090;17.026;2023-03-24T22:44:04;23.10;;;10.80;;
66919;SDS011;53831;52.090;17.026;2023-03-24T22:55:25;16.40;;;8.60;;
66919;SDS011;53831;52.090;17.026;2023-03-24T23:01:15;16.50;;;7.90;;
66919;SDS011;53831;52.090;17.026;2023-03-24T23:06:28;19.30;;;9.00;;
66919;SDS011;53831;52.090;17.026;2023-03-24T23:12:03;20.10;;;9.40;;
66919;SDS011;53831;52.090;17.026;2023-03-24T23:17:23;19.60;;;9.20;;
66919;SDS011;53831;52.090;17.026;2023-03-24T23:22:33;17.60;;;9.60;;
66919;SDS011;53831;52.090;17.026;2023-03-24T23:33:43;17.00;;;8.60;;
66919;SDS011;53831;52.090;17.026;2023-03-24T23:39:27;17.40;;;9.00;;
66919;SDS011;53831;52.090;17.026;2023-03-24T23:44:47;18.70;;;8.00;;
66919;SDS011;53831;52.090;17.026;2023-03-24T23:50:13;18.20;;;9.70;;
66919;SDS011;53831;52.090;17.026;2023-03-24T23:55:41;17.40;;;8.40;;
